CheckWX is a tool to help pilots better visualize weather data.  It is not intended as a substitute for an official pre-flight weather briefing.

15:39:47 UTC

LFPG METAR
Charles de Gaulle International Airport
Paris, France
Current

40 mins ago

LFPG 211500Z 30006KT 260V340 CAVOK 26/11 Q1022 NOSIG
Observed
Jul-21 @ 15:00 UTC
Wind
  • 300° at 6 KTS
Visibility
10,000+ meters
Flight Rules
VFR
Cloud Levels
  • Clear skies
Temperature
26°C / 79°F
Dewpoint
11°C / 52°F
Humidity
39%
Altimeter
30.18" Hg
Pressure
1021.92 hPa
Previous

1 hour ago

LFPG 211430Z 29007KT 160V320 CAVOK 27/12 Q1022 NOSIG
Observed
Jul-21 @ 14:30 UTC
Wind
  • 290° at 7 KTS
Visibility
10,000+ meters
Flight Rules
VFR
Cloud Levels
  • Clear skies
Temperature
27°C / 81°F
Dewpoint
12°C / 54°F
Humidity
39%
Altimeter
30.18" Hg
Pressure
1021.92 hPa
Previous

2 hours ago

LFPG 211400Z 28007KT 230V320 CAVOK 26/11 Q1022 NOSIG
Observed
Jul-21 @ 14:00 UTC
Wind
  • 280° at 7 KTS
Visibility
10,000+ meters
Flight Rules
VFR
Cloud Levels
  • Clear skies
Temperature
26°C / 79°F
Dewpoint
11°C / 52°F
Humidity
39%
Altimeter
30.18" Hg
Pressure
1021.92 hPa